sensor_id;sensor_type;location;lat;lon;timestamp;P1;durP1;ratioP1;P2;durP2;ratioP2
49514;SDS011;35415;47.870;16.058;2024-03-02T00:01:18;20.13;;;12.05;;
49514;SDS011;35415;47.870;16.058;2024-03-02T00:03:48;18.58;;;10.88;;
49514;SDS011;35415;47.870;16.058;2024-03-02T00:06:18;18.08;;;11.00;;
49514;SDS011;35415;47.870;16.058;2024-03-02T00:08:49;19.02;;;10.43;;
49514;SDS011;35415;47.870;16.058;2024-03-02T00:11:19;15.90;;;10.43;;
49514;SDS011;35415;47.870;16.058;2024-03-02T00:13:51;17.95;;;11.00;;
49514;SDS011;35415;47.870;16.058;2024-03-02T00:16:22;16.67;;;10.38;;
49514;SDS011;35415;47.870;16.058;2024-03-02T00:18:52;17.83;;;10.93;;
49514;SDS011;35415;47.870;16.058;2024-03-02T00:21:24;19.58;;;11.10;;
49514;SDS011;35415;47.870;16.058;2024-03-02T00:23:57;17.83;;;10.95;;
49514;SDS011;35415;47.870;16.058;2024-03-02T00:26:28;15.23;;;9.48;;
49514;SDS011;35415;47.870;16.058;2024-03-02T00:29:00;13.75;;;8.98;;
49514;SDS011;35415;47.870;16.058;2024-03-02T00:31:29;18.00;;;9.95;;
49514;SDS011;35415;47.870;16.058;2024-03-02T00:33:58;16.58;;;10.00;;
49514;SDS011;35415;47.870;16.058;2024-03-02T00:36:32;22.35;;;12.57;;
49514;SDS011;35415;47.870;16.058;2024-03-02T00:39:03;18.90;;;11.50;;
49514;SDS011;35415;47.870;16.058;2024-03-02T00:41:34;19.30;;;11.52;;
49514;SDS011;35415;47.870;16.058;2024-03-02T00:44:06;21.13;;;11.30;;
49514;SDS011;35415;47.870;16.058;2024-03-02T00:46:37;17.05;;;11.68;;
49514;SDS011;35415;47.870;16.058;2024-03-02T00:49:11;17.40;;;11.63;;
49514;SDS011;35415;47.870;16.058;2024-03-02T00:51:48;19.23;;;12.02;;
49514;SDS011;35415;47.870;16.058;2024-03-02T00:54:19;17.80;;;10.30;;
49514;SDS011;35415;47.870;16.058;2024-03-02T00:56:50;19.42;;;11.02;;
49514;SDS011;35415;47.870;16.058;2024-03-02T00:59:23;18.40;;;10.05;;
49514;SDS011;35415;47.870;16.058;2024-03-02T01:01:52;17.05;;;10.38;;
49514;SDS011;35415;47.870;16.058;2024-03-02T01:04:24;14.32;;;9.50;;
49514;SDS011;35415;47.870;16.058;2024-03-02T01:06:54;14.85;;;9.32;;
49514;SDS011;35415;47.870;16.058;2024-03-02T01:09:24;19.25;;;11.38;;
49514;SDS011;35415;47.870;16.058;2024-03-02T01:11:54;15.63;;;9.73;;
49514;SDS011;35415;47.870;16.058;2024-03-02T01:14:26;20.35;;;9.27;;
49514;SDS011;35415;47.870;16.058;2024-03-02T01:16:55;15.32;;;9.52;;
49514;SDS011;35415;47.870;16.058;2024-03-02T01:19:23;20.25;;;11.25;;
49514;SDS011;35415;47.870;16.058;2024-03-02T01:21:52;19.15;;;10.85;;
49514;SDS011;35415;47.870;16.058;2024-03-02T01:24:21;19.67;;;10.35;;
49514;SDS011;35415;47.870;16.058;2024-03-02T01:26:51;15.18;;;9.10;;
49514;SDS011;35415;47.870;16.058;2024-03-02T01:29:20;17.35;;;10.18;;
49514;SDS011;35415;47.870;16.058;2024-03-02T01:31:51;14.88;;;9.52;;
49514;SDS011;35415;47.870;16.058;2024-03-02T01:34:19;15.35;;;9.90;;
49514;SDS011;35415;47.870;16.058;2024-03-02T01:36:49;17.17;;;10.00;;
49514;SDS011;35415;47.870;16.058;2024-03-02T01:39:18;17.58;;;10.38;;
49514;SDS011;35415;47.870;16.058;2024-03-02T01:41:47;14.75;;;9.45;;
49514;SDS011;35415;47.870;16.058;2024-03-02T01:44:15;14.70;;;10.02;;
49514;SDS011;35415;47.870;16.058;2024-03-02T01:46:44;14.88;;;8.90;;
49514;SDS011;35415;47.870;16.058;2024-03-02T01:49:15;13.95;;;8.20;;
49514;SDS011;35415;47.870;16.058;2024-03-02T01:51:44;14.85;;;9.35;;
49514;SDS011;35415;47.870;16.058;2024-03-02T01:54:13;15.68;;;8.85;;
49514;SDS011;35415;47.870;16.058;2024-03-02T01:56:43;14.40;;;8.98;;
49514;SDS011;35415;47.870;16.058;2024-03-02T01:59:11;14.23;;;8.25;;
49514;SDS011;35415;47.870;16.058;2024-03-02T02:01:40;16.95;;;8.73;;
49514;SDS011;35415;47.870;16.058;2024-03-02T02:04:09;13.98;;;8.70;;
49514;SDS011;35415;47.870;16.058;2024-03-02T02:06:41;16.35;;;9.27;;
49514;SDS011;35415;47.870;16.058;2024-03-02T02:09:11;15.10;;;8.45;;
49514;SDS011;35415;47.870;16.058;2024-03-02T02:11:41;14.88;;;9.20;;
49514;SDS011;35415;47.870;16.058;2024-03-02T02:14:09;22.40;;;10.10;;
49514;SDS011;35415;47.870;16.058;2024-03-02T02:16:38;15.38;;;9.05;;
49514;SDS011;35415;47.870;16.058;2024-03-02T02:19:08;18.10;;;9.85;;
49514;SDS011;35415;47.870;16.058;2024-03-02T02:21:39;17.48;;;10.45;;
49514;SDS011;35415;47.870;16.058;2024-03-02T02:24:10;15.88;;;9.70;;
49514;SDS011;35415;47.870;16.058;2024-03-02T02:26:39;16.80;;;9.55;;
49514;SDS011;35415;47.870;16.058;2024-03-02T02:29:09;17.92;;;10.13;;
49514;SDS011;35415;47.870;16.058;2024-03-02T02:31:38;8.75;;;5.20;;
49514;SDS011;35415;47.870;16.058;2024-03-02T02:34:08;10.95;;;6.55;;
49514;SDS011;35415;47.870;16.058;2024-03-02T02:36:39;17.73;;;8.48;;
49514;SDS011;35415;47.870;16.058;2024-03-02T02:39:09;16.48;;;7.85;;
49514;SDS011;35415;47.870;16.058;2024-03-02T02:41:42;12.90;;;8.07;;
49514;SDS011;35415;47.870;16.058;2024-03-02T02:44:11;15.07;;;8.48;;
49514;SDS011;35415;47.870;16.058;2024-03-02T02:46:40;16.42;;;8.82;;
49514;SDS011;35415;47.870;16.058;2024-03-02T02:49:08;17.08;;;9.95;;
49514;SDS011;35415;47.870;16.058;2024-03-02T02:51:37;17.73;;;10.07;;
49514;SDS011;35415;47.870;16.058;2024-03-02T02:54:07;18.98;;;11.32;;
49514;SDS011;35415;47.870;16.058;2024-03-02T02:56:37;17.58;;;8.48;;
49514;SDS011;35415;47.870;16.058;2024-03-02T02:59:05;16.02;;;8.75;;
49514;SDS011;35415;47.870;16.058;2024-03-02T03:01:34;18.20;;;9.43;;
49514;SDS011;35415;47.870;16.058;2024-03-02T03:04:03;17.45;;;9.30;;
49514;SDS011;35415;47.870;16.058;2024-03-02T03:06:32;17.70;;;9.20;;
49514;SDS011;35415;47.870;16.058;2024-03-02T03:09:02;18.75;;;10.48;;
49514;SDS011;35415;47.870;16.058;2024-03-02T03:11:30;17.13;;;9.20;;
49514;SDS011;35415;47.870;16.058;2024-03-02T03:14:00;16.13;;;9.45;;
49514;SDS011;35415;47.870;16.058;2024-03-02T03:16:29;13.77;;;7.43;;
49514;SDS011;35415;47.870;16.058;2024-03-02T03:18:59;14.88;;;8.43;;
49514;SDS011;35415;47.870;16.058;2024-03-02T03:21:28;16.80;;;8.70;;
49514;SDS011;35415;47.870;16.058;2024-03-02T03:23:58;15.18;;;9.38;;
49514;SDS011;35415;47.870;16.058;2024-03-02T03:26:29;18.17;;;8.27;;
49514;SDS011;35415;47.870;16.058;2024-03-02T03:28:58;17.05;;;9.10;;
49514;SDS011;35415;47.870;16.058;2024-03-02T03:31:28;15.88;;;8.55;;
49514;SDS011;35415;47.870;16.058;2024-03-02T03:33:58;15.90;;;9.52;;
49514;SDS011;35415;47.870;16.058;2024-03-02T03:36:26;15.73;;;9.07;;
49514;SDS011;35415;47.870;16.058;2024-03-02T03:38:55;17.13;;;9.75;;
49514;SDS011;35415;47.870;16.058;2024-03-02T03:41:23;17.10;;;9.20;;
49514;SDS011;35415;47.870;16.058;2024-03-02T03:43:54;15.43;;;8.88;;
49514;SDS011;35415;47.870;16.058;2024-03-02T03:46:23;17.35;;;8.35;;
49514;SDS011;35415;47.870;16.058;2024-03-02T03:48:52;17.40;;;10.02;;
49514;SDS011;35415;47.870;16.058;2024-03-02T03:51:21;15.98;;;9.70;;
49514;SDS011;35415;47.870;16.058;2024-03-02T03:53:50;15.68;;;9.10;;
49514;SDS011;35415;47.870;16.058;2024-03-02T03:56:19;17.10;;;8.70;;
49514;SDS011;35415;47.870;16.058;2024-03-02T03:58:47;14.95;;;8.10;;
49514;SDS011;35415;47.870;16.058;2024-03-02T04:01:18;13.32;;;8.10;;
49514;SDS011;35415;47.870;16.058;2024-03-02T04:03:47;12.32;;;7.60;;
49514;SDS011;35415;47.870;16.058;2024-03-02T04:06:16;11.02;;;6.25;;
49514;SDS011;35415;47.870;16.058;2024-03-02T04:08:45;11.13;;;6.65;;
49514;SDS011;35415;47.870;16.058;2024-03-02T04:11:14;15.82;;;7.72;;
49514;SDS011;35415;47.870;16.058;2024-03-02T04:13:43;9.75;;;5.95;;
49514;SDS011;35415;47.870;16.058;2024-03-02T04:16:11;14.15;;;7.78;;
49514;SDS011;35415;47.870;16.058;2024-03-02T04:18:43;14.32;;;8.00;;
49514;SDS011;35415;47.870;16.058;2024-03-02T04:21:12;12.63;;;7.22;;
49514;SDS011;35415;47.870;16.058;2024-03-02T04:23:42;12.30;;;7.30;;
49514;SDS011;35415;47.870;16.058;2024-03-02T04:26:12;16.75;;;8.07;;
49514;SDS011;35415;47.870;16.058;2024-03-02T04:28:40;14.65;;;7.75;;
49514;SDS011;35415;47.870;16.058;2024-03-02T04:31:10;11.00;;;7.50;;
49514;SDS011;35415;47.870;16.058;2024-03-02T04:33:38;12.70;;;7.25;;
49514;SDS011;35415;47.870;16.058;2024-03-02T04:36:09;12.82;;;7.25;;
49514;SDS011;35415;47.870;16.058;2024-03-02T04:38:38;12.07;;;6.82;;
49514;SDS011;35415;47.870;16.058;2024-03-02T04:41:07;12.30;;;7.78;;
49514;SDS011;35415;47.870;16.058;2024-03-02T04:43:36;12.98;;;7.40;;
49514;SDS011;35415;47.870;16.058;2024-03-02T04:46:06;10.18;;;6.25;;
49514;SDS011;35415;47.870;16.058;2024-03-02T04:48:35;12.27;;;7.03;;
49514;SDS011;35415;47.870;16.058;2024-03-02T04:51:04;15.07;;;6.18;;
49514;SDS011;35415;47.870;16.058;2024-03-02T04:53:34;12.43;;;7.07;;
49514;SDS011;35415;47.870;16.058;2024-03-02T04:56:04;14.85;;;7.10;;
49514;SDS011;35415;47.870;16.058;2024-03-02T04:59:05;9.88;;;6.07;;
49514;SDS011;35415;47.870;16.058;2024-03-02T05:01:35;12.27;;;7.05;;
49514;SDS011;35415;47.870;16.058;2024-03-02T05:04:04;11.15;;;6.57;;
49514;SDS011;35415;47.870;16.058;2024-03-02T05:06:33;13.40;;;7.20;;
49514;SDS011;35415;47.870;16.058;2024-03-02T05:09:03;16.15;;;7.40;;
49514;SDS011;35415;47.870;16.058;2024-03-02T05:11:32;13.68;;;7.68;;
49514;SDS011;35415;47.870;16.058;2024-03-02T05:14:36;11.38;;;7.05;;
49514;SDS011;35415;47.870;16.058;2024-03-02T05:17:06;13.82;;;7.35;;
49514;SDS011;35415;47.870;16.058;2024-03-02T05:19:35;12.95;;;7.05;;
49514;SDS011;35415;47.870;16.058;2024-03-02T05:22:04;12.60;;;7.32;;
49514;SDS011;35415;47.870;16.058;2024-03-02T05:24:34;13.90;;;7.03;;
49514;SDS011;35415;47.870;16.058;2024-03-02T05:27:03;15.13;;;7.93;;
49514;SDS011;35415;47.870;16.058;2024-03-02T05:29:33;16.02;;;7.88;;
49514;SDS011;35415;47.870;16.058;2024-03-02T05:32:03;12.40;;;7.40;;
49514;SDS011;35415;47.870;16.058;2024-03-02T05:34:32;12.27;;;7.32;;
49514;SDS011;35415;47.870;16.058;2024-03-02T05:37:01;12.95;;;7.22;;
49514;SDS011;35415;47.870;16.058;2024-03-02T05:39:30;12.73;;;6.95;;
49514;SDS011;35415;47.870;16.058;2024-03-02T05:42:00;10.98;;;5.78;;
49514;SDS011;35415;47.870;16.058;2024-03-02T05:44:30;12.43;;;7.43;;
49514;SDS011;35415;47.870;16.058;2024-03-02T05:46:59;14.88;;;9.32;;
49514;SDS011;35415;47.870;16.058;2024-03-02T05:49:27;11.85;;;6.28;;
49514;SDS011;35415;47.870;16.058;2024-03-02T05:51:56;10.63;;;6.10;;
49514;SDS011;35415;47.870;16.058;2024-03-02T05:54:25;10.80;;;5.57;;
49514;SDS011;35415;47.870;16.058;2024-03-02T05:56:54;10.77;;;6.38;;
49514;SDS011;35415;47.870;16.058;2024-03-02T05:59:43;8.98;;;5.80;;
49514;SDS011;35415;47.870;16.058;2024-03-02T06:02:12;9.05;;;5.47;;
49514;SDS011;35415;47.870;16.058;2024-03-02T06:04:42;10.80;;;6.47;;
49514;SDS011;35415;47.870;16.058;2024-03-02T06:07:11;11.00;;;5.95;;
49514;SDS011;35415;47.870;16.058;2024-03-02T06:09:41;9.88;;;5.43;;
49514;SDS011;35415;47.870;16.058;2024-03-02T06:12:12;8.50;;;5.70;;
49514;SDS011;35415;47.870;16.058;2024-03-02T06:14:41;10.02;;;6.00;;
49514;SDS011;35415;47.870;16.058;2024-03-02T06:17:11;8.52;;;5.30;;
49514;SDS011;35415;47.870;16.058;2024-03-02T06:22:33;12.52;;;6.03;;
49514;SDS011;35415;47.870;16.058;2024-03-02T06:25:03;9.88;;;6.18;;
49514;SDS011;35415;47.870;16.058;2024-03-02T06:27:32;10.27;;;6.55;;
49514;SDS011;35415;47.870;16.058;2024-03-02T06:30:03;49.65;;;24.00;;
49514;SDS011;35415;47.870;16.058;2024-03-02T06:35:02;12.75;;;6.93;;
49514;SDS011;35415;47.870;16.058;2024-03-02T06:37:33;10.60;;;7.25;;
49514;SDS011;35415;47.870;16.058;2024-03-02T06:40:02;10.90;;;6.60;;
49514;SDS011;35415;47.870;16.058;2024-03-02T06:42:33;11.35;;;6.38;;
49514;SDS011;35415;47.870;16.058;2024-03-02T06:45:04;23.35;;;12.75;;
49514;SDS011;35415;47.870;16.058;2024-03-02T06:47:34;13.27;;;7.03;;
49514;SDS011;35415;47.870;16.058;2024-03-02T06:50:02;15.02;;;8.73;;
49514;SDS011;35415;47.870;16.058;2024-03-02T06:52:32;10.10;;;5.75;;
49514;SDS011;35415;47.870;16.058;2024-03-02T06:55:02;12.68;;;7.38;;
49514;SDS011;35415;47.870;16.058;2024-03-02T06:57:32;12.95;;;7.22;;
49514;SDS011;35415;47.870;16.058;2024-03-02T07:00:00;13.60;;;8.27;;
49514;SDS011;35415;47.870;16.058;2024-03-02T07:02:32;13.27;;;7.57;;
49514;SDS011;35415;47.870;16.058;2024-03-02T07:05:00;17.58;;;8.88;;
49514;SDS011;35415;47.870;16.058;2024-03-02T07:07:29;13.77;;;9.00;;
49514;SDS011;35415;47.870;16.058;2024-03-02T07:09:59;8.32;;;5.38;;
49514;SDS011;35415;47.870;16.058;2024-03-02T07:12:27;12.82;;;6.80;;
49514;SDS011;35415;47.870;16.058;2024-03-02T07:14:55;10.60;;;6.15;;
49514;SDS011;35415;47.870;16.058;2024-03-02T07:17:52;10.13;;;5.65;;
49514;SDS011;35415;47.870;16.058;2024-03-02T07:20:20;7.70;;;5.32;;
49514;SDS011;35415;47.870;16.058;2024-03-02T07:22:49;9.38;;;5.10;;
49514;SDS011;35415;47.870;16.058;2024-03-02T07:25:16;10.35;;;5.38;;
49514;SDS011;35415;47.870;16.058;2024-03-02T07:27:45;9.32;;;5.63;;
49514;SDS011;35415;47.870;16.058;2024-03-02T07:30:14;11.20;;;6.50;;
49514;SDS011;35415;47.870;16.058;2024-03-02T07:32:43;6.72;;;5.05;;
49514;SDS011;35415;47.870;16.058;2024-03-02T07:35:14;9.52;;;6.03;;
49514;SDS011;35415;47.870;16.058;2024-03-02T07:37:43;8.98;;;5.90;;
49514;SDS011;35415;47.870;16.058;2024-03-02T07:40:12;10.48;;;5.75;;
49514;SDS011;35415;47.870;16.058;2024-03-02T07:42:40;10.55;;;5.20;;
49514;SDS011;35415;47.870;16.058;2024-03-02T07:45:09;8.55;;;5.28;;
49514;SDS011;35415;47.870;16.058;2024-03-02T07:47:40;8.43;;;5.43;;
49514;SDS011;35415;47.870;16.058;2024-03-02T07:50:10;6.22;;;4.72;;
49514;SDS011;35415;47.870;16.058;2024-03-02T07:52:41;7.15;;;4.50;;
49514;SDS011;35415;47.870;16.058;2024-03-02T07:55:10;8.40;;;4.70;;
49514;SDS011;35415;47.870;16.058;2024-03-02T07:57:38;8.05;;;4.95;;
49514;SDS011;35415;47.870;16.058;2024-03-02T08:00:09;7.45;;;5.18;;
49514;SDS011;35415;47.870;16.058;2024-03-02T08:02:42;7.13;;;4.72;;
49514;SDS011;35415;47.870;16.058;2024-03-02T08:05:11;6.82;;;4.63;;
49514;SDS011;35415;47.870;16.058;2024-03-02T08:07:43;6.72;;;4.10;;
49514;SDS011;35415;47.870;16.058;2024-03-02T08:10:12;6.63;;;5.28;;
49514;SDS011;35415;47.870;16.058;2024-03-02T08:12:42;7.28;;;4.85;;
49514;SDS011;35415;47.870;16.058;2024-03-02T08:15:11;8.32;;;5.03;;
49514;SDS011;35415;47.870;16.058;2024-03-02T08:17:40;10.70;;;5.82;;
49514;SDS011;35415;47.870;16.058;2024-03-02T08:20:14;10.07;;;5.53;;
49514;SDS011;35415;47.870;16.058;2024-03-02T08:22:47;14.13;;;7.95;;
49514;SDS011;35415;47.870;16.058;2024-03-02T08:25:17;13.10;;;8.48;;
49514;SDS011;35415;47.870;16.058;2024-03-02T08:27:45;12.32;;;8.60;;
49514;SDS011;35415;47.870;16.058;2024-03-02T08:30:14;17.63;;;10.65;;
49514;SDS011;35415;47.870;16.058;2024-03-02T08:32:44;17.40;;;10.10;;
49514;SDS011;35415;47.870;16.058;2024-03-02T08:35:13;17.02;;;10.27;;
49514;SDS011;35415;47.870;16.058;2024-03-02T08:37:42;18.85;;;12.00;;
49514;SDS011;35415;47.870;16.058;2024-03-02T08:40:14;21.48;;;13.52;;
49514;SDS011;35415;47.870;16.058;2024-03-02T08:42:43;24.33;;;13.53;;
49514;SDS011;35415;47.870;16.058;2024-03-02T08:45:12;26.50;;;14.40;;
49514;SDS011;35415;47.870;16.058;2024-03-02T08:47:41;23.10;;;14.02;;
49514;SDS011;35415;47.870;16.058;2024-03-02T08:50:10;23.92;;;14.73;;
49514;SDS011;35415;47.870;16.058;2024-03-02T08:52:39;26.13;;;15.25;;
49514;SDS011;35415;47.870;16.058;2024-03-02T08:55:08;26.42;;;15.65;;
49514;SDS011;35415;47.870;16.058;2024-03-02T08:57:40;27.92;;;16.38;;
49514;SDS011;35415;47.870;16.058;2024-03-02T09:00:09;21.55;;;14.32;;
49514;SDS011;35415;47.870;16.058;2024-03-02T09:02:40;22.90;;;14.30;;
49514;SDS011;35415;47.870;16.058;2024-03-02T09:05:08;24.27;;;15.07;;
49514;SDS011;35415;47.870;16.058;2024-03-02T09:07:36;25.38;;;15.82;;
49514;SDS011;35415;47.870;16.058;2024-03-02T09:10:05;24.05;;;15.15;;
49514;SDS011;35415;47.870;16.058;2024-03-02T09:12:34;26.55;;;15.85;;
49514;SDS011;35415;47.870;16.058;2024-03-02T09:15:05;26.75;;;15.90;;
49514;SDS011;35415;47.870;16.058;2024-03-02T09:17:35;27.73;;;16.33;;
49514;SDS011;35415;47.870;16.058;2024-03-02T09:20:04;26.20;;;15.18;;
49514;SDS011;35415;47.870;16.058;2024-03-02T09:22:33;24.33;;;14.30;;
49514;SDS011;35415;47.870;16.058;2024-03-02T09:25:01;24.60;;;15.00;;
49514;SDS011;35415;47.870;16.058;2024-03-02T09:27:32;26.23;;;14.50;;
49514;SDS011;35415;47.870;16.058;2024-03-02T09:30:06;23.70;;;14.90;;
49514;SDS011;35415;47.870;16.058;2024-03-02T09:32:41;28.35;;;17.08;;
49514;SDS011;35415;47.870;16.058;2024-03-02T09:35:10;25.42;;;16.08;;
49514;SDS011;35415;47.870;16.058;2024-03-02T09:37:40;24.85;;;16.02;;
49514;SDS011;35415;47.870;16.058;2024-03-02T09:40:10;28.05;;;17.15;;
49514;SDS011;35415;47.870;16.058;2024-03-02T09:42:42;29.48;;;16.80;;
49514;SDS011;35415;47.870;16.058;2024-03-02T09:45:44;27.50;;;16.73;;
49514;SDS011;35415;47.870;16.058;2024-03-02T09:48:13;29.23;;;16.58;;
49514;SDS011;35415;47.870;16.058;2024-03-02T09:50:44;25.52;;;15.07;;
49514;SDS011;35415;47.870;16.058;2024-03-02T09:53:13;25.02;;;15.77;;
49514;SDS011;35415;47.870;16.058;2024-03-02T09:55:45;30.23;;;17.20;;
49514;SDS011;35415;47.870;16.058;2024-03-02T09:58:15;27.13;;;15.70;;
49514;SDS011;35415;47.870;16.058;2024-03-02T10:00:46;27.58;;;15.32;;
49514;SDS011;35415;47.870;16.058;2024-03-02T10:03:16;27.85;;;15.73;;
49514;SDS011;35415;47.870;16.058;2024-03-02T10:05:47;30.67;;;15.20;;
49514;SDS011;35415;47.870;16.058;2024-03-02T10:08:18;28.17;;;15.70;;
49514;SDS011;35415;47.870;16.058;2024-03-02T10:10:47;23.63;;;14.38;;
49514;SDS011;35415;47.870;16.058;2024-03-02T10:13:16;24.88;;;15.05;;
49514;SDS011;35415;47.870;16.058;2024-03-02T10:15:47;23.63;;;14.45;;
49514;SDS011;35415;47.870;16.058;2024-03-02T10:18:18;26.55;;;15.55;;
49514;SDS011;35415;47.870;16.058;2024-03-02T10:20:58;24.98;;;15.32;;
49514;SDS011;35415;47.870;16.058;2024-03-02T10:23:41;20.73;;;14.25;;
49514;SDS011;35415;47.870;16.058;2024-03-02T10:26:12;24.40;;;13.00;;
49514;SDS011;35415;47.870;16.058;2024-03-02T10:28:46;22.85;;;13.10;;
49514;SDS011;35415;47.870;16.058;2024-03-02T10:31:19;21.17;;;13.10;;
49514;SDS011;35415;47.870;16.058;2024-03-02T10:33:52;20.63;;;12.50;;
49514;SDS011;35415;47.870;16.058;2024-03-02T10:36:22;21.60;;;13.00;;
49514;SDS011;35415;47.870;16.058;2024-03-02T10:38:52;20.50;;;11.65;;
49514;SDS011;35415;47.870;16.058;2024-03-02T10:41:23;19.05;;;12.40;;
49514;SDS011;35415;47.870;16.058;2024-03-02T10:43:53;18.75;;;11.48;;
49514;SDS011;35415;47.870;16.058;2024-03-02T10:46:29;19.13;;;12.30;;
49514;SDS011;35415;47.870;16.058;2024-03-02T10:48:59;20.17;;;12.63;;
49514;SDS011;35415;47.870;16.058;2024-03-02T10:51:32;18.23;;;11.60;;
49514;SDS011;35415;47.870;16.058;2024-03-02T10:54:02;18.08;;;12.32;;
49514;SDS011;35415;47.870;16.058;2024-03-02T10:56:32;22.35;;;12.77;;
49514;SDS011;35415;47.870;16.058;2024-03-02T10:59:03;18.38;;;11.73;;
49514;SDS011;35415;47.870;16.058;2024-03-02T11:01:39;22.15;;;13.18;;
49514;SDS011;35415;47.870;16.058;2024-03-02T11:04:12;20.90;;;13.25;;
49514;SDS011;35415;47.870;16.058;2024-03-02T11:06:46;17.35;;;12.05;;
49514;SDS011;35415;47.870;16.058;2024-03-02T11:09:19;23.85;;;13.48;;
49514;SDS011;35415;47.870;16.058;2024-03-02T11:11:54;19.08;;;12.18;;
49514;SDS011;35415;47.870;16.058;2024-03-02T11:14:29;18.60;;;13.02;;
49514;SDS011;35415;47.870;16.058;2024-03-02T11:17:02;20.23;;;12.43;;
49514;SDS011;35415;47.870;16.058;2024-03-02T11:22:02;21.98;;;12.93;;
49514;SDS011;35415;47.870;16.058;2024-03-02T11:24:33;21.17;;;13.43;;
49514;SDS011;35415;47.870;16.058;2024-03-02T11:27:03;22.90;;;13.05;;
49514;SDS011;35415;47.870;16.058;2024-03-02T11:29:44;22.10;;;13.98;;
49514;SDS011;35415;47.870;16.058;2024-03-02T11:32:15;23.77;;;15.05;;
49514;SDS011;35415;47.870;16.058;2024-03-02T11:37:16;24.60;;;15.80;;
49514;SDS011;35415;47.870;16.058;2024-03-02T11:39:47;26.60;;;16.92;;
49514;SDS011;35415;47.870;16.058;2024-03-02T11:42:17;27.45;;;16.08;;
49514;SDS011;35415;47.870;16.058;2024-03-02T11:44:46;26.85;;;16.02;;
49514;SDS011;35415;47.870;16.058;2024-03-02T11:47:18;27.80;;;16.90;;
49514;SDS011;35415;47.870;16.058;2024-03-02T11:49:48;28.15;;;18.17;;
49514;SDS011;35415;47.870;16.058;2024-03-02T11:54:47;26.23;;;16.73;;
49514;SDS011;35415;47.870;16.058;2024-03-02T11:57:17;31.23;;;17.75;;
49514;SDS011;35415;47.870;16.058;2024-03-02T11:59:48;30.90;;;18.42;;
49514;SDS011;35415;47.870;16.058;2024-03-02T12:02:19;28.33;;;17.17;;
49514;SDS011;35415;47.870;16.058;2024-03-02T12:04:49;31.45;;;17.83;;
49514;SDS011;35415;47.870;16.058;2024-03-02T12:07:22;33.45;;;19.08;;
49514;SDS011;35415;47.870;16.058;2024-03-02T12:09:59;28.90;;;18.83;;
49514;SDS011;35415;47.870;16.058;2024-03-02T12:12:30;29.50;;;18.40;;
49514;SDS011;35415;47.870;16.058;2024-03-02T12:14:59;30.55;;;18.85;;
49514;SDS011;35415;47.870;16.058;2024-03-02T12:17:30;36.17;;;19.63;;
49514;SDS011;35415;47.870;16.058;2024-03-02T12:19:58;30.55;;;18.92;;
49514;SDS011;35415;47.870;16.058;2024-03-02T12:22:29;31.02;;;18.85;;
49514;SDS011;35415;47.870;16.058;2024-03-02T12:24:57;30.63;;;19.38;;
49514;SDS011;35415;47.870;16.058;2024-03-02T12:27:27;34.83;;;19.98;;
49514;SDS011;35415;47.870;16.058;2024-03-02T12:29:55;29.73;;;18.80;;
49514;SDS011;35415;47.870;16.058;2024-03-02T12:32:24;32.65;;;19.13;;
49514;SDS011;35415;47.870;16.058;2024-03-02T12:34:55;38.83;;;22.70;;
49514;SDS011;35415;47.870;16.058;2024-03-02T12:37:26;31.65;;;19.27;;
49514;SDS011;35415;47.870;16.058;2024-03-02T12:39:55;31.48;;;18.63;;
49514;SDS011;35415;47.870;16.058;2024-03-02T12:42:25;36.97;;;20.60;;
49514;SDS011;35415;47.870;16.058;2024-03-02T12:44:54;30.98;;;19.35;;
49514;SDS011;35415;47.870;16.058;2024-03-02T12:47:23;33.55;;;20.00;;
49514;SDS011;35415;47.870;16.058;2024-03-02T12:49:52;33.38;;;19.98;;
49514;SDS011;35415;47.870;16.058;2024-03-02T12:52:24;37.70;;;21.88;;
49514;SDS011;35415;47.870;16.058;2024-03-02T12:54:53;35.63;;;20.55;;
49514;SDS011;35415;47.870;16.058;2024-03-02T12:57:27;35.85;;;21.17;;
49514;SDS011;35415;47.870;16.058;2024-03-02T12:59:58;34.13;;;21.00;;
49514;SDS011;35415;47.870;16.058;2024-03-02T13:02:28;36.05;;;22.35;;
49514;SDS011;35415;47.870;16.058;2024-03-02T13:04:58;35.65;;;20.35;;
49514;SDS011;35415;47.870;16.058;2024-03-02T13:07:28;33.60;;;19.75;;
49514;SDS011;35415;47.870;16.058;2024-03-02T13:09:58;34.63;;;19.55;;
49514;SDS011;35415;47.870;16.058;2024-03-02T13:12:27;39.83;;;21.70;;
49514;SDS011;35415;47.870;16.058;2024-03-02T13:14:58;37.30;;;21.13;;
49514;SDS011;35415;47.870;16.058;2024-03-02T13:17:28;39.45;;;21.27;;
49514;SDS011;35415;47.870;16.058;2024-03-02T13:19:58;35.13;;;21.77;;
49514;SDS011;35415;47.870;16.058;2024-03-02T13:22:32;36.00;;;21.15;;
49514;SDS011;35415;47.870;16.058;2024-03-02T13:25:02;38.22;;;21.38;;
49514;SDS011;35415;47.870;16.058;2024-03-02T13:27:33;36.72;;;21.55;;
49514;SDS011;35415;47.870;16.058;2024-03-02T13:30:03;38.22;;;22.42;;
49514;SDS011;35415;47.870;16.058;2024-03-02T13:32:34;38.92;;;22.83;;
49514;SDS011;35415;47.870;16.058;2024-03-02T13:35:03;39.97;;;23.58;;
49514;SDS011;35415;47.870;16.058;2024-03-02T13:37:34;34.17;;;21.20;;
49514;SDS011;35415;47.870;16.058;2024-03-02T13:40:04;40.53;;;23.33;;
49514;SDS011;35415;47.870;16.058;2024-03-02T13:42:38;35.33;;;21.58;;
49514;SDS011;35415;47.870;16.058;2024-03-02T13:45:10;41.60;;;21.48;;
49514;SDS011;35415;47.870;16.058;2024-03-02T13:47:38;39.08;;;22.30;;
49514;SDS011;35415;47.870;16.058;2024-03-02T13:50:07;39.08;;;22.17;;
49514;SDS011;35415;47.870;16.058;2024-03-02T13:52:38;36.13;;;22.60;;
49514;SDS011;35415;47.870;16.058;2024-03-02T13:55:06;39.67;;;23.67;;
49514;SDS011;35415;47.870;16.058;2024-03-02T13:57:36;39.63;;;22.48;;
49514;SDS011;35415;47.870;16.058;2024-03-02T14:00:05;38.42;;;22.80;;
49514;SDS011;35415;47.870;16.058;2024-03-02T14:02:37;36.83;;;22.17;;
49514;SDS011;35415;47.870;16.058;2024-03-02T14:05:07;39.13;;;23.40;;
49514;SDS011;35415;47.870;16.058;2024-03-02T14:07:39;36.58;;;22.80;;
49514;SDS011;35415;47.870;16.058;2024-03-02T14:10:09;38.20;;;23.33;;
49514;SDS011;35415;47.870;16.058;2024-03-02T14:12:40;35.88;;;22.50;;
49514;SDS011;35415;47.870;16.058;2024-03-02T14:15:09;39.15;;;23.30;;
49514;SDS011;35415;47.870;16.058;2024-03-02T14:17:38;41.13;;;23.10;;
49514;SDS011;35415;47.870;16.058;2024-03-02T14:20:08;38.05;;;24.70;;
49514;SDS011;35415;47.870;16.058;2024-03-02T14:22:41;40.17;;;23.90;;
49514;SDS011;35415;47.870;16.058;2024-03-02T14:25:11;40.42;;;23.58;;
49514;SDS011;35415;47.870;16.058;2024-03-02T14:27:40;41.58;;;25.20;;
49514;SDS011;35415;47.870;16.058;2024-03-02T14:30:11;42.47;;;24.60;;
49514;SDS011;35415;47.870;16.058;2024-03-02T14:32:40;41.20;;;23.83;;
49514;SDS011;35415;47.870;16.058;2024-03-02T14:35:11;41.35;;;25.05;;
49514;SDS011;35415;47.870;16.058;2024-03-02T14:37:43;39.55;;;23.88;;
49514;SDS011;35415;47.870;16.058;2024-03-02T14:40:12;39.45;;;23.83;;
49514;SDS011;35415;47.870;16.058;2024-03-02T14:42:40;37.92;;;23.35;;
49514;SDS011;35415;47.870;16.058;2024-03-02T14:45:13;33.88;;;20.45;;
49514;SDS011;35415;47.870;16.058;2024-03-02T14:47:42;37.50;;;22.27;;